Terminal Aerodrome Forecast
Issued by NWS Shreveport, LA

Home | Current Version | Previous Version | Text Only | Print | Product List | Glossary On
Versions: 1 2 3 4 5 6 7 8 9 10 11 12 13 14
406
FTUS44 KSHV 022344
TAFMLU
TAF
KMLU 022344Z 0300/0324 05003KT P6SM SCT100
     FM030300 07005KT P6SM SCT070 OVC100
     FM030900 06006KT P6SM -RA OVC035
     FM031500 08008KT 5SM RA BR OVC015
     FM032100 07013KT 2SM -RA BR OVC007=

USA.gov is the U.S. government's official web portal to all federal, state and local government web resources and services.